Airfield :
LOGIN :

Register | Disclaimer

   EN    FR    IT 

 










Legend :    VFR   Marginal VFR   IFR   Intensive IFR   Very Intensive IFR
Visi :
Ceiling :
>= 8 km
>= 3000ft
5 to 8 km
1000 to 3000 ft
1500m to 5 km
500 to 1000 ft
800 to 1500m
200 to 500 ft
< 800m
< 200 ft
Symbols :   Thunderstorms  Fog  Heavy snow  Heavy precipitations  Wind > 20 kt
SIGMETs :     Misc.  Thunderstorms  Icing  Turbulence  Mountain Waves  Volcanic Ashes







- Airport Elevation : 659 ft
- IATA code : LGG


EBLG - Liège

CURRENT METAR :
  • 230020Z 15001KT CAVOK 16/12 Q1026 NOSIG

EXPIRED METARs :
  • 222350Z 13002KT CAVOK 17/11 Q1026 NOSIG
  • 222320Z 36001KT CAVOK 17/10 Q1026 NOSIG
  • 222250Z 35001KT CAVOK 17/11 Q1026 NOSIG
  • 222220Z 03003KT CAVOK 18/11 Q1026 NOSIG
  • 222150Z 03002KT CAVOK 19/09 Q1026 NOSIG

TAF TAF EBLG
Valid from the 23 at 00:00 until the 24 at 06:00 UTC


222320Z 2300/2406 VRB03KT CAVOK
No reported NOTAMs for that airfield.



MET'MAP, your aeronautical weather chart ! - Copyright ORBIFLY December 2007 - Disclaimer

ORBIFLY MET'MAP TEAM :

Programming & Development : Alexandra Zaïnal
Concept & Development : Baudouin d'Aumeries
Co-Development & Prog : Marc-Olivier Méhu
Technical & hardware support : Manuel Goepfert

Contact : metmap@orbifly.com




SOURCES & CREDITS :

   NOAA